sensor_id;sensor_type;location;lat;lon;timestamp;temperature;humidity
31046;DHT22;17711;54.018;9.300;2022-11-27T00:01:47;6.80;99.90
31046;DHT22;17711;54.018;9.300;2022-11-27T00:04:16;6.80;99.90
31046;DHT22;17711;54.018;9.300;2022-11-27T00:06:45;6.70;99.90
31046;DHT22;17711;54.018;9.300;2022-11-27T00:09:15;6.70;99.90
31046;DHT22;17711;54.018;9.300;2022-11-27T00:11:45;6.60;99.90
31046;DHT22;17711;54.018;9.300;2022-11-27T00:14:16;6.60;99.90
31046;DHT22;17711;54.018;9.300;2022-11-27T00:16:47;6.50;99.90
31046;DHT22;17711;54.018;9.300;2022-11-27T00:19:16;6.40;99.90
31046;DHT22;17711;54.018;9.300;2022-11-27T00:21:45;6.40;99.90
31046;DHT22;17711;54.018;9.300;2022-11-27T00:24:14;6.30;99.90
31046;DHT22;17711;54.018;9.300;2022-11-27T00:26:43;6.30;99.90
31046;DHT22;17711;54.018;9.300;2022-11-27T00:29:12;6.20;99.90
31046;DHT22;17711;54.018;9.300;2022-11-27T00:31:41;6.20;99.90
31046;DHT22;17711;54.018;9.300;2022-11-27T00:34:11;6.20;99.90
31046;DHT22;17711;54.018;9.300;2022-11-27T00:36:40;6.10;99.90
31046;DHT22;17711;54.018;9.300;2022-11-27T00:39:14;6.00;99.90
31046;DHT22;17711;54.018;9.300;2022-11-27T00:41:43;5.90;99.90
31046;DHT22;17711;54.018;9.300;2022-11-27T00:44:12;5.90;99.90
31046;DHT22;17711;54.018;9.300;2022-11-27T00:46:40;5.80;99.90
31046;DHT22;17711;54.018;9.300;2022-11-27T00:49:12;5.70;99.90
31046;DHT22;17711;54.018;9.300;2022-11-27T00:51:41;5.70;99.90
31046;DHT22;17711;54.018;9.300;2022-11-27T00:54:10;5.70;99.90
31046;DHT22;17711;54.018;9.300;2022-11-27T00:56:39;5.70;99.90
31046;DHT22;17711;54.018;9.300;2022-11-27T00:59:09;5.70;99.90
31046;DHT22;17711;54.018;9.300;2022-11-27T01:01:39;5.70;99.90
31046;DHT22;17711;54.018;9.300;2022-11-27T01:04:13;5.60;99.90
31046;DHT22;17711;54.018;9.300;2022-11-27T01:06:44;5.60;99.90
31046;DHT22;17711;54.018;9.300;2022-11-27T01:09:15;5.60;99.90
31046;DHT22;17711;54.018;9.300;2022-11-27T01:11:44;5.60;99.90
31046;DHT22;17711;54.018;9.300;2022-11-27T01:14:14;5.50;99.90
31046;DHT22;17711;54.018;9.300;2022-11-27T01:16:43;5.60;99.90
31046;DHT22;17711;54.018;9.300;2022-11-27T01:19:14;5.60;99.90
31046;DHT22;17711;54.018;9.300;2022-11-27T01:21:42;5.60;99.90
31046;DHT22;17711;54.018;9.300;2022-11-27T01:24:12;5.60;99.90
31046;DHT22;17711;54.018;9.300;2022-11-27T01:26:42;5.60;99.90
31046;DHT22;17711;54.018;9.300;2022-11-27T01:29:11;5.50;99.90
31046;DHT22;17711;54.018;9.300;2022-11-27T01:31:40;5.50;99.90
31046;DHT22;17711;54.018;9.300;2022-11-27T01:34:14;5.40;99.90
31046;DHT22;17711;54.018;9.300;2022-11-27T01:36:44;5.40;99.90
31046;DHT22;17711;54.018;9.300;2022-11-27T01:39:15;5.40;99.90
31046;DHT22;17711;54.018;9.300;2022-11-27T01:41:44;5.40;99.90
31046;DHT22;17711;54.018;9.300;2022-11-27T01:44:49;5.30;99.90
31046;DHT22;17711;54.018;9.300;2022-11-27T01:47:33;5.30;99.90
31046;DHT22;17711;54.018;9.300;2022-11-27T01:50:10;5.30;99.90
31046;DHT22;17711;54.018;9.300;2022-11-27T01:52:43;5.30;99.90
31046;DHT22;17711;54.018;9.300;2022-11-27T01:55:20;5.30;99.90
31046;DHT22;17711;54.018;9.300;2022-11-27T01:57:59;5.30;99.90
31046;DHT22;17711;54.018;9.300;2022-11-27T02:00:28;5.30;99.90
31046;DHT22;17711;54.018;9.300;2022-11-27T02:02:56;5.30;99.90
31046;DHT22;17711;54.018;9.300;2022-11-27T02:05:27;5.30;99.90
31046;DHT22;17711;54.018;9.300;2022-11-27T02:07:57;5.30;99.90
31046;DHT22;17711;54.018;9.300;2022-11-27T02:10:34;5.20;99.90
31046;DHT22;17711;54.018;9.300;2022-11-27T02:13:10;5.10;99.90
31046;DHT22;17711;54.018;9.300;2022-11-27T02:15:43;5.10;99.90
31046;DHT22;17711;54.018;9.300;2022-11-27T02:18:20;5.00;99.90
31046;DHT22;17711;54.018;9.300;2022-11-27T02:20:54;5.00;99.90
31046;DHT22;17711;54.018;9.300;2022-11-27T02:23:42;4.90;99.90
31046;DHT22;17711;54.018;9.300;2022-11-27T02:29:19;4.80;99.90
31046;DHT22;17711;54.018;9.300;2022-11-27T02:31:55;4.80;99.90
31046;DHT22;17711;54.018;9.300;2022-11-27T02:34:27;4.70;99.90
31046;DHT22;17711;54.018;9.300;2022-11-27T02:37:06;4.70;99.90
31046;DHT22;17711;54.018;9.300;2022-11-27T02:39:39;4.70;99.90
31046;DHT22;17711;54.018;9.300;2022-11-27T02:42:11;4.70;99.90
31046;DHT22;17711;54.018;9.300;2022-11-27T02:44:46;4.70;99.90
31046;DHT22;17711;54.018;9.300;2022-11-27T02:47:15;4.70;99.90
31046;DHT22;17711;54.018;9.300;2022-11-27T02:49:50;4.70;99.90
31046;DHT22;17711;54.018;9.300;2022-11-27T02:52:24;4.70;99.90
31046;DHT22;17711;54.018;9.300;2022-11-27T02:54:55;4.70;99.90
31046;DHT22;17711;54.018;9.300;2022-11-27T02:57:25;4.70;99.90
31046;DHT22;17711;54.018;9.300;2022-11-27T02:59:57;4.70;99.90
31046;DHT22;17711;54.018;9.300;2022-11-27T03:02:28;4.70;99.90
31046;DHT22;17711;54.018;9.300;2022-11-27T03:05:00;4.70;99.90
31046;DHT22;17711;54.018;9.300;2022-11-27T03:07:34;4.60;99.90
31046;DHT22;17711;54.018;9.300;2022-11-27T03:10:10;4.60;99.90
31046;DHT22;17711;54.018;9.300;2022-11-27T03:12:40;4.60;99.90
31046;DHT22;17711;54.018;9.300;2022-11-27T03:15:11;4.60;99.90
31046;DHT22;17711;54.018;9.300;2022-11-27T03:17:51;4.50;99.90
31046;DHT22;17711;54.018;9.300;2022-11-27T03:20:25;4.50;99.90
31046;DHT22;17711;54.018;9.300;2022-11-27T03:22:54;4.50;99.90
31046;DHT22;17711;54.018;9.300;2022-11-27T03:25:24;4.40;99.90
31046;DHT22;17711;54.018;9.300;2022-11-27T03:27:56;4.40;99.90
31046;DHT22;17711;54.018;9.300;2022-11-27T03:30:33;4.30;99.90
31046;DHT22;17711;54.018;9.300;2022-11-27T03:33:02;4.30;99.90
31046;DHT22;17711;54.018;9.300;2022-11-27T03:35:32;4.30;99.90
31046;DHT22;17711;54.018;9.300;2022-11-27T03:38:00;4.20;99.90
31046;DHT22;17711;54.018;9.300;2022-11-27T03:40:37;4.30;99.90
31046;DHT22;17711;54.018;9.300;2022-11-27T03:43:13;4.30;99.90
31046;DHT22;17711;54.018;9.300;2022-11-27T03:45:54;4.20;99.90
31046;DHT22;17711;54.018;9.300;2022-11-27T03:48:31;4.20;99.90
31046;DHT22;17711;54.018;9.300;2022-11-27T03:51:06;4.20;99.90
31046;DHT22;17711;54.018;9.300;2022-11-27T03:53:43;4.10;99.90
31046;DHT22;17711;54.018;9.300;2022-11-27T03:56:25;4.00;99.90
31046;DHT22;17711;54.018;9.300;2022-11-27T03:59:03;4.00;99.90
31046;DHT22;17711;54.018;9.300;2022-11-27T04:01:49;4.10;99.90
31046;DHT22;17711;54.018;9.300;2022-11-27T04:04:20;4.00;99.90
31046;DHT22;17711;54.018;9.300;2022-11-27T04:06:49;4.10;99.90
31046;DHT22;17711;54.018;9.300;2022-11-27T04:09:19;4.00;99.90
31046;DHT22;17711;54.018;9.300;2022-11-27T04:11:47;4.00;99.90
31046;DHT22;17711;54.018;9.300;2022-11-27T04:14:16;4.00;99.90
31046;DHT22;17711;54.018;9.300;2022-11-27T04:16:45;3.90;99.90
31046;DHT22;17711;54.018;9.300;2022-11-27T04:19:14;3.80;99.90
31046;DHT22;17711;54.018;9.300;2022-11-27T04:21:43;3.80;99.90
31046;DHT22;17711;54.018;9.300;2022-11-27T04:24:12;3.80;99.90
31046;DHT22;17711;54.018;9.300;2022-11-27T04:26:40;3.70;99.90
31046;DHT22;17711;54.018;9.300;2022-11-27T04:29:09;3.70;99.90
31046;DHT22;17711;54.018;9.300;2022-11-27T04:31:43;3.70;99.90
31046;DHT22;17711;54.018;9.300;2022-11-27T04:34:12;3.70;99.90
31046;DHT22;17711;54.018;9.300;2022-11-27T04:36:42;3.60;99.90
31046;DHT22;17711;54.018;9.300;2022-11-27T04:39:12;3.60;99.90
31046;DHT22;17711;54.018;9.300;2022-11-27T04:41:40;3.60;99.90
31046;DHT22;17711;54.018;9.300;2022-11-27T04:44:10;3.60;99.90
31046;DHT22;17711;54.018;9.300;2022-11-27T04:46:38;3.60;99.90
31046;DHT22;17711;54.018;9.300;2022-11-27T04:49:08;3.60;99.90
31046;DHT22;17711;54.018;9.300;2022-11-27T04:51:37;3.60;99.90
31046;DHT22;17711;54.018;9.300;2022-11-27T04:54:07;3.60;99.90
31046;DHT22;17711;54.018;9.300;2022-11-27T04:56:36;3.60;99.90
31046;DHT22;17711;54.018;9.300;2022-11-27T04:59:04;3.50;99.90
31046;DHT22;17711;54.018;9.300;2022-11-27T05:01:33;3.50;99.90
31046;DHT22;17711;54.018;9.300;2022-11-27T05:04:02;3.60;99.90
31046;DHT22;17711;54.018;9.300;2022-11-27T05:06:30;3.60;99.90
31046;DHT22;17711;54.018;9.300;2022-11-27T05:08:59;3.60;99.90
31046;DHT22;17711;54.018;9.300;2022-11-27T05:11:30;3.60;99.90
31046;DHT22;17711;54.018;9.300;2022-11-27T05:13:59;3.70;99.90
31046;DHT22;17711;54.018;9.300;2022-11-27T05:16:45;3.60;99.90
31046;DHT22;17711;54.018;9.300;2022-11-27T05:19:14;3.60;99.90
31046;DHT22;17711;54.018;9.300;2022-11-27T05:21:44;3.60;99.90
31046;DHT22;17711;54.018;9.300;2022-11-27T05:24:14;3.70;99.90
31046;DHT22;17711;54.018;9.300;2022-11-27T05:26:45;3.70;99.90
31046;DHT22;17711;54.018;9.300;2022-11-27T05:29:15;3.60;99.90
31046;DHT22;17711;54.018;9.300;2022-11-27T05:31:44;3.60;99.90
31046;DHT22;17711;54.018;9.300;2022-11-27T05:34:13;3.60;99.90
31046;DHT22;17711;54.018;9.300;2022-11-27T05:36:42;3.60;99.90
31046;DHT22;17711;54.018;9.300;2022-11-27T05:39:12;3.60;99.90
31046;DHT22;17711;54.018;9.300;2022-11-27T05:41:42;3.70;99.90
31046;DHT22;17711;54.018;9.300;2022-11-27T05:44:14;3.70;99.90
31046;DHT22;17711;54.018;9.300;2022-11-27T05:46:45;3.60;99.90
31046;DHT22;17711;54.018;9.300;2022-11-27T05:49:16;3.60;99.90
31046;DHT22;17711;54.018;9.300;2022-11-27T05:51:47;3.50;99.90
31046;DHT22;17711;54.018;9.300;2022-11-27T05:54:18;3.40;99.90
31046;DHT22;17711;54.018;9.300;2022-11-27T05:56:47;3.40;99.90
31046;DHT22;17711;54.018;9.300;2022-11-27T05:59:18;3.30;99.90
31046;DHT22;17711;54.018;9.300;2022-11-27T06:01:46;3.30;99.90
31046;DHT22;17711;54.018;9.300;2022-11-27T06:07:43;3.30;99.90
31046;DHT22;17711;54.018;9.300;2022-11-27T06:10:13;3.40;99.90
31046;DHT22;17711;54.018;9.300;2022-11-27T06:12:42;3.30;99.90
31046;DHT22;17711;54.018;9.300;2022-11-27T06:15:13;3.40;99.90
31046;DHT22;17711;54.018;9.300;2022-11-27T06:17:43;3.40;99.90
31046;DHT22;17711;54.018;9.300;2022-11-27T06:20:11;3.40;99.90
31046;DHT22;17711;54.018;9.300;2022-11-27T06:22:40;3.30;99.90
31046;DHT22;17711;54.018;9.300;2022-11-27T06:25:09;3.40;99.90
31046;DHT22;17711;54.018;9.300;2022-11-27T06:27:38;3.40;99.90
31046;DHT22;17711;54.018;9.300;2022-11-27T06:30:09;3.40;99.90
31046;DHT22;17711;54.018;9.300;2022-11-27T06:32:40;3.40;99.90
31046;DHT22;17711;54.018;9.300;2022-11-27T06:35:09;3.40;99.90
31046;DHT22;17711;54.018;9.300;2022-11-27T06:37:37;3.40;99.90
31046;DHT22;17711;54.018;9.300;2022-11-27T06:40:07;3.40;99.90
31046;DHT22;17711;54.018;9.300;2022-11-27T06:42:35;3.30;99.90
31046;DHT22;17711;54.018;9.300;2022-11-27T06:45:06;3.30;99.90
31046;DHT22;17711;54.018;9.300;2022-11-27T06:47:34;3.20;99.90
31046;DHT22;17711;54.018;9.300;2022-11-27T06:50:05;3.20;99.90
31046;DHT22;17711;54.018;9.300;2022-11-27T06:52:36;3.10;99.90
31046;DHT22;17711;54.018;9.300;2022-11-27T06:55:07;3.10;99.90
31046;DHT22;17711;54.018;9.300;2022-11-27T06:57:39;3.10;99.90
31046;DHT22;17711;54.018;9.300;2022-11-27T07:00:09;3.10;99.90
31046;DHT22;17711;54.018;9.300;2022-11-27T07:02:37;3.10;99.90
31046;DHT22;17711;54.018;9.300;2022-11-27T07:05:10;3.20;99.90
31046;DHT22;17711;54.018;9.300;2022-11-27T07:07:38;3.20;99.90
31046;DHT22;17711;54.018;9.300;2022-11-27T07:10:10;3.20;99.90
31046;DHT22;17711;54.018;9.300;2022-11-27T07:12:38;3.20;99.90
31046;DHT22;17711;54.018;9.300;2022-11-27T07:15:11;3.20;99.90
31046;DHT22;17711;54.018;9.300;2022-11-27T07:17:39;3.20;99.90
31046;DHT22;17711;54.018;9.300;2022-11-27T07:20:12;3.20;99.90
31046;DHT22;17711;54.018;9.300;2022-11-27T07:22:40;3.20;99.90
31046;DHT22;17711;54.018;9.300;2022-11-27T07:25:09;3.20;99.90
31046;DHT22;17711;54.018;9.300;2022-11-27T07:27:37;3.20;99.90
31046;DHT22;17711;54.018;9.300;2022-11-27T07:30:07;3.20;99.90
31046;DHT22;17711;54.018;9.300;2022-11-27T07:32:36;3.20;99.90
31046;DHT22;17711;54.018;9.300;2022-11-27T07:35:05;3.20;99.90
31046;DHT22;17711;54.018;9.300;2022-11-27T07:37:35;3.30;99.90
31046;DHT22;17711;54.018;9.300;2022-11-27T07:40:05;3.30;99.90
31046;DHT22;17711;54.018;9.300;2022-11-27T07:42:33;3.30;99.90
31046;DHT22;17711;54.018;9.300;2022-11-27T07:45:06;3.40;99.90
31046;DHT22;17711;54.018;9.300;2022-11-27T07:47:35;3.40;99.90
31046;DHT22;17711;54.018;9.300;2022-11-27T07:50:05;3.50;99.90
31046;DHT22;17711;54.018;9.300;2022-11-27T07:52:36;3.50;99.90
31046;DHT22;17711;54.018;9.300;2022-11-27T07:55:08;3.60;99.90
31046;DHT22;17711;54.018;9.300;2022-11-27T07:57:37;3.70;99.90
31046;DHT22;17711;54.018;9.300;2022-11-27T08:00:07;3.80;99.90
31046;DHT22;17711;54.018;9.300;2022-11-27T08:02:36;3.90;99.90
31046;DHT22;17711;54.018;9.300;2022-11-27T08:05:05;4.00;99.90
31046;DHT22;17711;54.018;9.300;2022-11-27T08:07:40;4.00;99.90
31046;DHT22;17711;54.018;9.300;2022-11-27T08:10:09;4.10;99.90
31046;DHT22;17711;54.018;9.300;2022-11-27T08:12:38;4.20;99.90
31046;DHT22;17711;54.018;9.300;2022-11-27T08:15:07;4.30;99.90
31046;DHT22;17711;54.018;9.300;2022-11-27T08:17:36;4.30;99.90
31046;DHT22;17711;54.018;9.300;2022-11-27T08:20:06;4.40;99.90
31046;DHT22;17711;54.018;9.300;2022-11-27T08:22:35;4.50;99.90
31046;DHT22;17711;54.018;9.300;2022-11-27T08:25:06;4.50;99.90
31046;DHT22;17711;54.018;9.300;2022-11-27T08:27:35;4.60;99.90
31046;DHT22;17711;54.018;9.300;2022-11-27T08:30:05;4.60;99.90
31046;DHT22;17711;54.018;9.300;2022-11-27T08:32:36;4.60;99.90
31046;DHT22;17711;54.018;9.300;2022-11-27T08:35:05;4.60;99.90
31046;DHT22;17711;54.018;9.300;2022-11-27T08:37:35;4.70;99.90
31046;DHT22;17711;54.018;9.300;2022-11-27T08:40:06;4.70;99.90
31046;DHT22;17711;54.018;9.300;2022-11-27T08:42:35;4.70;99.90
31046;DHT22;17711;54.018;9.300;2022-11-27T08:45:05;4.70;99.90
31046;DHT22;17711;54.018;9.300;2022-11-27T08:47:33;4.80;99.90
31046;DHT22;17711;54.018;9.300;2022-11-27T08:50:03;4.90;99.90
31046;DHT22;17711;54.018;9.300;2022-11-27T08:52:32;5.00;99.90
31046;DHT22;17711;54.018;9.300;2022-11-27T08:55:05;5.10;99.90
31046;DHT22;17711;54.018;9.300;2022-11-27T08:57:34;5.10;99.90
31046;DHT22;17711;54.018;9.300;2022-11-27T09:00:04;5.00;99.90
31046;DHT22;17711;54.018;9.300;2022-11-27T09:02:36;5.00;99.90
31046;DHT22;17711;54.018;9.300;2022-11-27T09:05:08;5.00;99.90
31046;DHT22;17711;54.018;9.300;2022-11-27T09:07:38;5.00;99.90
31046;DHT22;17711;54.018;9.300;2022-11-27T09:10:10;5.20;99.90
31046;DHT22;17711;54.018;9.300;2022-11-27T09:12:39;5.80;99.90
31046;DHT22;17711;54.018;9.300;2022-11-27T09:15:10;6.60;99.90
31046;DHT22;17711;54.018;9.300;2022-11-27T09:17:39;7.20;99.90
31046;DHT22;17711;54.018;9.300;2022-11-27T09:20:09;7.40;99.90
31046;DHT22;17711;54.018;9.300;2022-11-27T09:22:41;7.40;99.90
31046;DHT22;17711;54.018;9.300;2022-11-27T09:25:12;7.20;99.90
31046;DHT22;17711;54.018;9.300;2022-11-27T09:27:41;6.90;99.90
31046;DHT22;17711;54.018;9.300;2022-11-27T09:30:11;6.70;99.90
31046;DHT22;17711;54.018;9.300;2022-11-27T09:32:39;6.60;99.90
31046;DHT22;17711;54.018;9.300;2022-11-27T09:35:08;6.50;99.90
31046;DHT22;17711;54.018;9.300;2022-11-27T09:37:38;6.30;99.90
31046;DHT22;17711;54.018;9.300;2022-11-27T09:40:09;6.30;99.90
31046;DHT22;17711;54.018;9.300;2022-11-27T09:42:51;6.20;99.90
31046;DHT22;17711;54.018;9.300;2022-11-27T09:45:21;6.20;99.90
31046;DHT22;17711;54.018;9.300;2022-11-27T09:47:54;6.30;99.90
31046;DHT22;17711;54.018;9.300;2022-11-27T09:50:29;6.40;99.90
31046;DHT22;17711;54.018;9.300;2022-11-27T09:53:03;6.60;99.90
31046;DHT22;17711;54.018;9.300;2022-11-27T09:55:36;6.90;99.90
31046;DHT22;17711;54.018;9.300;2022-11-27T09:58:15;7.10;99.90
31046;DHT22;17711;54.018;9.300;2022-11-27T10:00:45;7.20;99.90
31046;DHT22;17711;54.018;9.300;2022-11-27T10:03:17;7.10;99.90
31046;DHT22;17711;54.018;9.300;2022-11-27T10:05:59;7.10;99.90
31046;DHT22;17711;54.018;9.300;2022-11-27T10:08:34;7.10;99.90
31046;DHT22;17711;54.018;9.300;2022-11-27T10:11:15;7.10;99.90
31046;DHT22;17711;54.018;9.300;2022-11-27T10:13:55;6.90;99.90
31046;DHT22;17711;54.018;9.300;2022-11-27T10:16:35;6.80;99.90
31046;DHT22;17711;54.018;9.300;2022-11-27T10:19:18;6.80;99.90
31046;DHT22;17711;54.018;9.300;2022-11-27T10:21:55;6.70;99.90
31046;DHT22;17711;54.018;9.300;2022-11-27T10:24:31;6.80;99.90
31046;DHT22;17711;54.018;9.300;2022-11-27T10:27:14;6.70;99.90
31046;DHT22;17711;54.018;9.300;2022-11-27T10:29:50;6.70;99.90
31046;DHT22;17711;54.018;9.300;2022-11-27T10:32:24;6.80;99.90
31046;DHT22;17711;54.018;9.300;2022-11-27T10:35:16;6.80;99.90
31046;DHT22;17711;54.018;9.300;2022-11-27T10:37:49;6.80;99.90
31046;DHT22;17711;54.018;9.300;2022-11-27T10:40:23;6.80;99.90
31046;DHT22;17711;54.018;9.300;2022-11-27T10:42:58;6.90;99.90
31046;DHT22;17711;54.018;9.300;2022-11-27T10:45:41;6.90;99.90
31046;DHT22;17711;54.018;9.300;2022-11-27T10:48:13;7.00;99.90
31046;DHT22;17711;54.018;9.300;2022-11-27T10:50:46;7.00;99.90
31046;DHT22;17711;54.018;9.300;2022-11-27T10:53:25;7.10;99.90
31046;DHT22;17711;54.018;9.300;2022-11-27T10:56:17;7.20;99.90
31046;DHT22;17711;54.018;9.300;2022-11-27T10:58:51;7.20;99.90
31046;DHT22;17711;54.018;9.300;2022-11-27T11:01:26;7.20;99.90
31046;DHT22;17711;54.018;9.300;2022-11-27T11:04:07;7.20;99.90
31046;DHT22;17711;54.018;9.300;2022-11-27T11:06:56;7.30;99.90
31046;DHT22;17711;54.018;9.300;2022-11-27T11:09:28;7.30;99.90
31046;DHT22;17711;54.018;9.300;2022-11-27T11:12:06;7.30;99.90
31046;DHT22;17711;54.018;9.300;2022-11-27T11:14:35;7.40;99.90
31046;DHT22;17711;54.018;9.300;2022-11-27T11:17:15;7.40;99.90
31046;DHT22;17711;54.018;9.300;2022-11-27T11:19:45;7.50;99.90
31046;DHT22;17711;54.018;9.300;2022-11-27T11:22:15;7.50;99.90
31046;DHT22;17711;54.018;9.300;2022-11-27T11:24:45;7.60;99.90
31046;DHT22;17711;54.018;9.300;2022-11-27T11:27:17;7.60;99.90
31046;DHT22;17711;54.018;9.300;2022-11-27T11:29:49;7.70;99.90
31046;DHT22;17711;54.018;9.300;2022-11-27T11:32:24;7.70;99.90
31046;DHT22;17711;54.018;9.300;2022-11-27T11:34:59;7.70;99.90
31046;DHT22;17711;54.018;9.300;2022-11-27T11:37:33;7.80;99.90
31046;DHT22;17711;54.018;9.300;2022-11-27T11:40:06;7.80;99.90
31046;DHT22;17711;54.018;9.300;2022-11-27T11:42:51;7.80;99.90
31046;DHT22;17711;54.018;9.300;2022-11-27T11:45:21;7.80;99.90
31046;DHT22;17711;54.018;9.300;2022-11-27T11:47:59;7.70;99.90
31046;DHT22;17711;54.018;9.300;2022-11-27T11:50:33;7.70;99.90
31046;DHT22;17711;54.018;9.300;2022-11-27T11:53:10;7.70;99.90
31046;DHT22;17711;54.018;9.300;2022-11-27T11:55:44;7.70;99.90
31046;DHT22;17711;54.018;9.300;2022-11-27T11:58:37;7.70;99.90
31046;DHT22;17711;54.018;9.300;2022-11-27T12:04:23;7.60;99.90
31046;DHT22;17711;54.018;9.300;2022-11-27T12:07:00;7.60;99.90
31046;DHT22;17711;54.018;9.300;2022-11-27T12:09:43;7.60;99.90
31046;DHT22;17711;54.018;9.300;2022-11-27T12:12:24;7.60;99.90
31046;DHT22;17711;54.018;9.300;2022-11-27T12:15:02;7.60;99.90
31046;DHT22;17711;54.018;9.300;2022-11-27T12:17:51;7.50;99.90
31046;DHT22;17711;54.018;9.300;2022-11-27T12:20:30;7.50;99.90
31046;DHT22;17711;54.018;9.300;2022-11-27T12:26:13;7.40;99.90
31046;DHT22;17711;54.018;9.300;2022-11-27T12:29:06;7.30;99.90
31046;DHT22;17711;54.018;9.300;2022-11-27T12:32:00;7.30;99.90
31046;DHT22;17711;54.018;9.300;2022-11-27T12:34:41;7.30;99.90
31046;DHT22;17711;54.018;9.300;2022-11-27T12:37:26;7.30;99.90
31046;DHT22;17711;54.018;9.300;2022-11-27T12:40:08;7.30;99.90
31046;DHT22;17711;54.018;9.300;2022-11-27T12:42:44;7.20;99.90
31046;DHT22;17711;54.018;9.300;2022-11-27T12:45:18;7.20;99.90
31046;DHT22;17711;54.018;9.300;2022-11-27T12:47:53;7.20;99.90
31046;DHT22;17711;54.018;9.300;2022-11-27T12:50:29;7.20;99.90
31046;DHT22;17711;54.018;9.300;2022-11-27T12:53:09;7.20;99.90
31046;DHT22;17711;54.018;9.300;2022-11-27T12:55:59;7.20;99.90
31046;DHT22;17711;54.018;9.300;2022-11-27T12:58:34;7.20;99.90
31046;DHT22;17711;54.018;9.300;2022-11-27T13:01:11;7.20;99.90
31046;DHT22;17711;54.018;9.300;2022-11-27T13:04:05;7.20;99.90
31046;DHT22;17711;54.018;9.300;2022-11-27T13:06:45;7.30;99.90
31046;DHT22;17711;54.018;9.300;2022-11-27T13:09:21;7.40;99.90
31046;DHT22;17711;54.018;9.300;2022-11-27T13:11:54;7.40;99.90
31046;DHT22;17711;54.018;9.300;2022-11-27T13:14:25;7.40;99.90
31046;DHT22;17711;54.018;9.300;2022-11-27T13:16:59;7.40;99.90
31046;DHT22;17711;54.018;9.300;2022-11-27T13:19:31;7.40;99.90
31046;DHT22;17711;54.018;9.300;2022-11-27T13:22:03;7.40;99.90
31046;DHT22;17711;54.018;9.300;2022-11-27T13:24:35;7.40;99.90
31046;DHT22;17711;54.018;9.300;2022-11-27T13:27:07;7.40;99.90
31046;DHT22;17711;54.018;9.300;2022-11-27T13:29:41;7.40;99.90
31046;DHT22;17711;54.018;9.300;2022-11-27T13:32:19;7.40;99.90
31046;DHT22;17711;54.018;9.300;2022-11-27T13:34:49;7.30;99.90
31046;DHT22;17711;54.018;9.300;2022-11-27T13:37:28;7.30;99.90
31046;DHT22;17711;54.018;9.300;2022-11-27T13:40:04;7.30;99.90
31046;DHT22;17711;54.018;9.300;2022-11-27T13:42:35;7.30;99.90
31046;DHT22;17711;54.018;9.300;2022-11-27T13:45:07;7.20;99.90
31046;DHT22;17711;54.018;9.300;2022-11-27T13:47:39;7.20;99.90
31046;DHT22;17711;54.018;9.300;2022-11-27T13:50:12;7.20;99.90
31046;DHT22;17711;54.018;9.300;2022-11-27T13:52:50;7.20;99.90
31046;DHT22;17711;54.018;9.300;2022-11-27T13:55:28;7.10;99.90
31046;DHT22;17711;54.018;9.300;2022-11-27T13:57:59;7.10;99.90
31046;DHT22;17711;54.018;9.300;2022-11-27T14:00:35;7.10;99.90
31046;DHT22;17711;54.018;9.300;2022-11-27T14:03:06;7.00;99.90
31046;DHT22;17711;54.018;9.300;2022-11-27T14:05:39;7.00;99.90
31046;DHT22;17711;54.018;9.300;2022-11-27T14:08:20;7.00;99.90
31046;DHT22;17711;54.018;9.300;2022-11-27T14:10:55;7.00;99.90
31046;DHT22;17711;54.018;9.300;2022-11-27T14:13:37;7.00;99.90
31046;DHT22;17711;54.018;9.300;2022-11-27T14:16:20;7.00;99.90
31046;DHT22;17711;54.018;9.300;2022-11-27T14:18:52;7.00;99.90
31046;DHT22;17711;54.018;9.300;2022-11-27T14:21:25;6.90;99.90
31046;DHT22;17711;54.018;9.300;2022-11-27T14:23:57;6.90;99.90
31046;DHT22;17711;54.018;9.300;2022-11-27T14:26:33;6.90;99.90
31046;DHT22;17711;54.018;9.300;2022-11-27T14:29:10;6.90;99.90
31046;DHT22;17711;54.018;9.300;2022-11-27T14:31:39;6.80;99.90
31046;DHT22;17711;54.018;9.300;2022-11-27T14:34:24;6.80;99.90
31046;DHT22;17711;54.018;9.300;2022-11-27T14:36:54;6.80;99.90
31046;DHT22;17711;54.018;9.300;2022-11-27T14:39:26;6.80;99.90
31046;DHT22;17711;54.018;9.300;2022-11-27T14:41:58;6.80;99.90
31046;DHT22;17711;54.018;9.300;2022-11-27T14:44:28;6.70;99.90
31046;DHT22;17711;54.018;9.300;2022-11-27T14:47:00;6.70;99.90
31046;DHT22;17711;54.018;9.300;2022-11-27T14:49:31;6.70;99.90
31046;DHT22;17711;54.018;9.300;2022-11-27T14:52:06;6.70;99.90
31046;DHT22;17711;54.018;9.300;2022-11-27T14:54:41;6.70;99.90
31046;DHT22;17711;54.018;9.300;2022-11-27T14:57:19;6.70;99.90
31046;DHT22;17711;54.018;9.300;2022-11-27T15:00:00;6.70;99.90
31046;DHT22;17711;54.018;9.300;2022-11-27T15:02:31;6.70;99.90
31046;DHT22;17711;54.018;9.300;2022-11-27T15:05:03;6.60;99.90
31046;DHT22;17711;54.018;9.300;2022-11-27T15:07:37;6.70;99.90
31046;DHT22;17711;54.018;9.300;2022-11-27T15:10:28;6.70;99.90
31046;DHT22;17711;54.018;9.300;2022-11-27T15:12:59;6.60;99.90
31046;DHT22;17711;54.018;9.300;2022-11-27T15:15:31;6.60;99.90
31046;DHT22;17711;54.018;9.300;2022-11-27T15:18:02;6.60;99.90
31046;DHT22;17711;54.018;9.300;2022-11-27T15:20:37;6.60;99.90
31046;DHT22;17711;54.018;9.300;2022-11-27T15:23:14;6.60;99.90
31046;DHT22;17711;54.018;9.300;2022-11-27T15:25:49;6.60;99.90
31046;DHT22;17711;54.018;9.300;2022-11-27T15:28:32;6.60;99.90
31046;DHT22;17711;54.018;9.300;2022-11-27T15:31:03;6.50;99.90
31046;DHT22;17711;54.018;9.300;2022-11-27T15:33:55;6.50;99.90
31046;DHT22;17711;54.018;9.300;2022-11-27T15:36:25;6.50;99.90
31046;DHT22;17711;54.018;9.300;2022-11-27T15:39:08;6.50;99.90
31046;DHT22;17711;54.018;9.300;2022-11-27T15:41:53;6.50;99.90
31046;DHT22;17711;54.018;9.300;2022-11-27T15:44:25;6.50;99.90
31046;DHT22;17711;54.018;9.300;2022-11-27T15:46:58;6.50;99.90
31046;DHT22;17711;54.018;9.300;2022-11-27T15:49:28;6.50;99.90
31046;DHT22;17711;54.018;9.300;2022-11-27T15:51:57;6.50;99.90
31046;DHT22;17711;54.018;9.300;2022-11-27T15:54:26;6.50;99.90
31046;DHT22;17711;54.018;9.300;2022-11-27T15:56:56;6.50;99.90
31046;DHT22;17711;54.018;9.300;2022-11-27T15:59:27;6.60;99.90
31046;DHT22;17711;54.018;9.300;2022-11-27T16:01:55;6.60;99.90
31046;DHT22;17711;54.018;9.300;2022-11-27T16:04:24;6.50;99.90
31046;DHT22;17711;54.018;9.300;2022-11-27T16:06:57;6.60;99.90
31046;DHT22;17711;54.018;9.300;2022-11-27T16:09:27;6.50;99.90
31046;DHT22;17711;54.018;9.300;2022-11-27T16:11:56;6.50;99.90
31046;DHT22;17711;54.018;9.300;2022-11-27T16:14:26;6.50;99.90
31046;DHT22;17711;54.018;9.300;2022-11-27T16:16:55;6.60;99.90
31046;DHT22;17711;54.018;9.300;2022-11-27T16:19:25;6.50;99.90
31046;DHT22;17711;54.018;9.300;2022-11-27T16:21:54;6.50;99.90
31046;DHT22;17711;54.018;9.300;2022-11-27T16:24:24;6.50;99.90
31046;DHT22;17711;54.018;9.300;2022-11-27T16:26:53;6.50;99.90
31046;DHT22;17711;54.018;9.300;2022-11-27T16:29:23;6.50;99.90
31046;DHT22;17711;54.018;9.300;2022-11-27T16:31:55;6.50;99.90
31046;DHT22;17711;54.018;9.300;2022-11-27T16:34:24;6.50;99.90